DAL2639 KJFK-KBOS
Flight info
| Callsign | DAL2639 |
|---|---|
| Flight time | 0h 39m |
| Altitude | 21000 |
| Route | MERIT ROBUC3 |
| Aircraft | A321/M-SDE3FGHIRWY/LB1 |
Departure
| Time | 2026-05-03 20:40 |
|---|---|
| Airport | John F. Kennedy International Airport (KJFK) |
Arrival
| Time | 2026-05-03 21:20 |
|---|---|
| Airport | Boston Logan International Airport (KBOS) |
| Time | Latitude | Longitude | Altitude | Speed | Heading |
|---|---|---|---|---|---|
| 2026-05-03 20:15 | 40.63988 | -73.78234 | 15 ft | 0 kts | 61° |
| 2026-05-03 20:29 | 40.63987 | -73.78237 | 15 ft | 1 kts | 61° |
| 2026-05-03 20:29 | 40.63980 | -73.78254 | 15 ft | 2 kts | 61° |
| 2026-05-03 20:29 | 40.63973 | -73.78271 | 15 ft | 2 kts | 61° |
| 2026-05-03 20:30 | 40.63966 | -73.78288 | 15 ft | 2 kts | 60° |
| 2026-05-03 20:30 | 40.63958 | -73.78306 | 15 ft | 2 kts | 61° |
| 2026-05-03 20:30 | 40.63953 | -73.78324 | 15 ft | 2 kts | 96° |
| 2026-05-03 20:30 | 40.63958 | -73.78342 | 15 ft | 2 kts | 130° |
| 2026-05-03 20:31 | 40.63965 | -73.78350 | 15 ft | 1 kts | 152° |
| 2026-05-03 20:31 | 40.63954 | -73.78341 | 15 ft | 4 kts | 148° |
| 2026-05-03 20:31 | 40.63941 | -73.78331 | 15 ft | 0 kts | 151° |
| 2026-05-03 20:33 | 40.63940 | -73.78331 | 15 ft | 0 kts | 151° |
| 2026-05-03 20:34 | 40.63929 | -73.78323 | 15 ft | 3 kts | 151° |
| 2026-05-03 20:34 | 40.63901 | -73.78303 | 15 ft | 5 kts | 158° |
| 2026-05-03 20:34 | 40.63855 | -73.78293 | 15 ft | 7 kts | 173° |
| 2026-05-03 20:34 | 40.63797 | -73.78283 | 15 ft | 9 kts | 173° |
| 2026-05-03 20:35 | 40.63729 | -73.78273 | 15 ft | 10 kts | 172° |
| 2026-05-03 20:35 | 40.63652 | -73.78261 | 15 ft | 11 kts | 173° |
| 2026-05-03 20:35 | 40.63572 | -73.78259 | 13 ft | 10 kts | 199° |
| 2026-05-03 20:35 | 40.63521 | -73.78277 | 12 ft | 7 kts | 148° |
| 2026-05-03 20:36 | 40.63485 | -73.78207 | 12 ft | 10 kts | 120° |
| 2026-05-03 20:36 | 40.63447 | -73.78123 | 12 ft | 11 kts | 121° |
| 2026-05-03 20:36 | 40.63404 | -73.78025 | 12 ft | 12 kts | 118° |
| 2026-05-03 20:36 | 40.63359 | -73.77918 | 12 ft | 13 kts | 119° |
| 2026-05-03 20:37 | 40.63308 | -73.77806 | 12 ft | 14 kts | 121° |
| 2026-05-03 20:37 | 40.63254 | -73.77688 | 12 ft | 15 kts | 120° |
| 2026-05-03 20:37 | 40.63198 | -73.77561 | 12 ft | 16 kts | 120° |
| 2026-05-03 20:37 | 40.63142 | -73.77437 | 12 ft | 16 kts | 121° |
| 2026-05-03 20:38 | 40.63081 | -73.77303 | 12 ft | 17 kts | 121° |
| 2026-05-03 20:38 | 40.63019 | -73.77169 | 12 ft | 17 kts | 121° |
| 2026-05-03 20:38 | 40.62971 | -73.77085 | 12 ft | 7 kts | 165° |
| 2026-05-03 20:38 | 40.62916 | -73.77112 | 12 ft | 8 kts | 211° |
| 2026-05-03 20:39 | 40.62866 | -73.77151 | 12 ft | 8 kts | 211° |
| 2026-05-03 20:39 | 40.62825 | -73.77200 | 12 ft | 7 kts | 252° |
| 2026-05-03 20:39 | 40.62841 | -73.77271 | 12 ft | 8 kts | 301° |
| 2026-05-03 20:39 | 40.62846 | -73.77283 | 12 ft | 0 kts | 301° |
| 2026-05-03 20:40 | 40.62877 | -73.77348 | 12 ft | 35 kts | 301° |
| 2026-05-03 20:40 | 40.63135 | -73.77923 | 12 ft | 108 kts | 300° |
| 2026-05-03 20:40 | 40.63625 | -73.78997 | 137 ft | 154 kts | 301° |
| 2026-05-03 20:40 | 40.64154 | -73.80164 | 945 ft | 150 kts | 302° |
| 2026-05-03 20:41 | 40.64673 | -73.81303 | 1801 ft | 147 kts | 303° |
| 2026-05-03 20:41 | 40.65262 | -73.82348 | 2368 ft | 148 kts | 321° |
| 2026-05-03 20:41 | 40.66300 | -73.82695 | 2716 ft | 171 kts | 1° |
| 2026-05-03 20:41 | 40.67435 | -73.81898 | 3041 ft | 204 kts | 39° |
| 2026-05-03 20:42 | 40.68112 | -73.80143 | 3372 ft | 234 kts | 69° |
| 2026-05-03 20:42 | 40.68427 | -73.77927 | 3695 ft | 257 kts | 76° |
| 2026-05-03 20:42 | 40.68695 | -73.75703 | 4413 ft | 255 kts | 71° |
| 2026-05-03 20:42 | 40.69461 | -73.73721 | 5099 ft | 243 kts | 37° |
| 2026-05-03 20:43 | 40.70849 | -73.72474 | 5720 ft | 242 kts | 22° |
| 2026-05-03 20:43 | 40.72321 | -73.71435 | 6413 ft | 246 kts | 22° |
| 2026-05-03 20:43 | 40.73864 | -73.70308 | 6941 ft | 260 kts | 23° |
| 2026-05-03 20:43 | 40.75457 | -73.69067 | 7493 ft | 272 kts | 25° |
| 2026-05-03 20:44 | 40.77072 | -73.67741 | 8297 ft | 276 kts | 26° |
| 2026-05-03 20:44 | 40.78675 | -73.66384 | 9122 ft | 278 kts | 26° |
| 2026-05-03 20:44 | 40.80302 | -73.64986 | 9949 ft | 280 kts | 26° |
| 2026-05-03 20:44 | 40.81939 | -73.63571 | 10611 ft | 287 kts | 26° |
| 2026-05-03 20:45 | 40.83639 | -73.62102 | 10980 ft | 304 kts | 26° |
| 2026-05-03 20:45 | 40.85475 | -73.60508 | 11311 ft | 321 kts | 27° |
| 2026-05-03 20:45 | 40.87379 | -73.58847 | 11619 ft | 338 kts | 27° |
| 2026-05-03 20:45 | 40.89354 | -73.57112 | 12080 ft | 348 kts | 27° |
| 2026-05-03 20:46 | 40.91373 | -73.55331 | 12735 ft | 351 kts | 27° |
| 2026-05-03 20:46 | 40.93402 | -73.53541 | 13395 ft | 354 kts | 27° |
| 2026-05-03 20:46 | 40.95477 | -73.51708 | 14028 ft | 357 kts | 27° |
| 2026-05-03 20:46 | 40.97547 | -73.49882 | 14642 ft | 361 kts | 27° |
| 2026-05-03 20:47 | 40.99641 | -73.48033 | 15243 ft | 365 kts | 27° |
| 2026-05-03 20:47 | 41.01751 | -73.46169 | 15839 ft | 368 kts | 27° |
| 2026-05-03 20:47 | 41.03885 | -73.44283 | 16426 ft | 371 kts | 27° |
| 2026-05-03 20:47 | 41.06030 | -73.42384 | 17034 ft | 373 kts | 27° |
| 2026-05-03 20:48 | 41.08172 | -73.40488 | 17578 ft | 376 kts | 27° |
| 2026-05-03 20:48 | 41.10362 | -73.38550 | 18116 ft | 380 kts | 27° |
| 2026-05-03 20:48 | 41.12571 | -73.36592 | 18643 ft | 383 kts | 27° |
| 2026-05-03 20:48 | 41.14790 | -73.34624 | 19151 ft | 387 kts | 28° |
| 2026-05-03 20:49 | 41.17061 | -73.32606 | 19652 ft | 390 kts | 28° |
| 2026-05-03 20:49 | 41.19320 | -73.30597 | 20148 ft | 393 kts | 28° |
| 2026-05-03 20:49 | 41.21603 | -73.28567 | 20640 ft | 396 kts | 28° |
| 2026-05-03 20:49 | 41.23893 | -73.26529 | 20874 ft | 399 kts | 28° |
| 2026-05-03 20:50 | 41.26207 | -73.24466 | 20875 ft | 398 kts | 28° |
| 2026-05-03 20:50 | 41.28498 | -73.22420 | 20877 ft | 398 kts | 28° |
| 2026-05-03 20:50 | 41.30799 | -73.20364 | 20879 ft | 398 kts | 28° |
| 2026-05-03 20:50 | 41.33084 | -73.18321 | 20878 ft | 398 kts | 28° |
| 2026-05-03 20:51 | 41.35377 | -73.16248 | 20876 ft | 400 kts | 30° |
| 2026-05-03 20:51 | 41.37359 | -73.13599 | 20862 ft | 413 kts | 49° |
| 2026-05-03 20:51 | 41.38631 | -73.10094 | 20871 ft | 425 kts | 69° |
| 2026-05-03 20:51 | 41.39159 | -73.06249 | 20887 ft | 428 kts | 78° |
| 2026-05-03 20:52 | 41.39548 | -73.02342 | 20880 ft | 427 kts | 78° |
| 2026-05-03 20:52 | 41.39930 | -72.98399 | 20877 ft | 427 kts | 78° |
| 2026-05-03 20:52 | 41.40323 | -72.94466 | 20875 ft | 427 kts | 78° |
| 2026-05-03 20:52 | 41.40721 | -72.90595 | 20873 ft | 427 kts | 78° |
| 2026-05-03 20:53 | 41.41132 | -72.86660 | 20869 ft | 426 kts | 77° |
| 2026-05-03 20:53 | 41.41543 | -72.82757 | 20869 ft | 426 kts | 78° |
| 2026-05-03 20:53 | 41.41955 | -72.78869 | 20865 ft | 427 kts | 77° |
| 2026-05-03 20:53 | 41.42371 | -72.74926 | 20860 ft | 427 kts | 78° |
| 2026-05-03 20:54 | 41.42783 | -72.71014 | 20856 ft | 427 kts | 78° |
| 2026-05-03 20:54 | 41.43601 | -72.63219 | 20852 ft | 426 kts | 78° |
| 2026-05-03 20:54 | 41.43888 | -72.60462 | 20850 ft | 426 kts | 78° |
| 2026-05-03 20:55 | 41.44242 | -72.57072 | 20848 ft | 426 kts | 78° |
| 2026-05-03 20:55 | 41.44647 | -72.53168 | 20839 ft | 426 kts | 78° |
| 2026-05-03 20:55 | 41.45052 | -72.49255 | 20840 ft | 426 kts | 78° |
| 2026-05-03 20:55 | 41.45456 | -72.45329 | 20837 ft | 426 kts | 78° |
| 2026-05-03 20:56 | 41.45854 | -72.41463 | 20680 ft | 426 kts | 78° |
| 2026-05-03 20:56 | 41.46252 | -72.37567 | 20593 ft | 423 kts | 78° |
| 2026-05-03 20:56 | 41.46652 | -72.33659 | 20737 ft | 426 kts | 78° |
| 2026-05-03 20:56 | 41.47047 | -72.29775 | 20798 ft | 426 kts | 78° |
| 2026-05-03 20:57 | 41.47446 | -72.25848 | 20821 ft | 426 kts | 78° |
| 2026-05-03 20:57 | 41.48013 | -72.22002 | 20820 ft | 423 kts | 71° |
| 2026-05-03 20:57 | 41.48921 | -72.18291 | 20676 ft | 419 kts | 64° |
| 2026-05-03 20:57 | 41.50122 | -72.14761 | 20420 ft | 422 kts | 59° |
| 2026-05-03 20:58 | 41.51454 | -72.11205 | 20167 ft | 442 kts | 58° |
| 2026-05-03 20:58 | 41.52853 | -72.07487 | 19902 ft | 448 kts | 59° |
| 2026-05-03 20:58 | 41.54236 | -72.03748 | 19648 ft | 449 kts | 59° |
| 2026-05-03 20:58 | 41.55588 | -71.99974 | 19386 ft | 448 kts | 61° |
| 2026-05-03 20:59 | 41.56788 | -71.96161 | 19125 ft | 448 kts | 63° |
| 2026-05-03 20:59 | 41.57949 | -71.92280 | 18871 ft | 446 kts | 64° |
| 2026-05-03 20:59 | 41.59096 | -71.88404 | 18598 ft | 444 kts | 64° |
| 2026-05-03 20:59 | 41.60230 | -71.84578 | 18281 ft | 442 kts | 64° |
| 2026-05-03 21:00 | 41.61356 | -71.80767 | 17911 ft | 439 kts | 64° |
| 2026-05-03 21:00 | 41.61731 | -71.79496 | 17770 ft | 438 kts | 64° |
| 2026-05-03 21:00 | 41.63567 | -71.73255 | 16966 ft | 428 kts | 64° |
| 2026-05-03 21:00 | 41.64640 | -71.69602 | 16591 ft | 416 kts | 64° |
| 2026-05-03 21:01 | 41.65666 | -71.66102 | 16392 ft | 405 kts | 64° |
| 2026-05-03 21:01 | 41.66697 | -71.62589 | 16192 ft | 402 kts | 64° |
| 2026-05-03 21:01 | 41.67701 | -71.59169 | 15930 ft | 392 kts | 64° |
| 2026-05-03 21:01 | 41.68676 | -71.55832 | 15887 ft | 375 kts | 63° |
| 2026-05-03 21:02 | 41.69606 | -71.52650 | 15602 ft | 366 kts | 63° |
| 2026-05-03 21:02 | 41.70527 | -71.49500 | 15240 ft | 360 kts | 63° |
| 2026-05-03 21:02 | 41.71431 | -71.46410 | 14870 ft | 355 kts | 63° |
| 2026-05-03 21:02 | 41.72381 | -71.43383 | 14505 ft | 348 kts | 59° |
| 2026-05-03 21:03 | 41.73480 | -71.40550 | 14147 ft | 340 kts | 55° |
| 2026-05-03 21:03 | 41.74638 | -71.37829 | 13798 ft | 335 kts | 54° |
| 2026-05-03 21:03 | 41.75795 | -71.35152 | 13454 ft | 330 kts | 54° |
| 2026-05-03 21:03 | 41.76925 | -71.32529 | 13115 ft | 325 kts | 54° |
| 2026-05-03 21:04 | 41.77913 | -71.30228 | 12816 ft | 321 kts | 55° |
| 2026-05-03 21:04 | 41.79019 | -71.27642 | 12465 ft | 317 kts | 55° |
| 2026-05-03 21:04 | 41.80109 | -71.25088 | 12079 ft | 314 kts | 55° |
| 2026-05-03 21:04 | 41.81186 | -71.22556 | 11747 ft | 309 kts | 55° |
| 2026-05-03 21:05 | 41.82241 | -71.20080 | 11453 ft | 303 kts | 55° |
| 2026-05-03 21:05 | 41.83291 | -71.17694 | 11136 ft | 298 kts | 54° |
| 2026-05-03 21:05 | 41.84365 | -71.15291 | 10646 ft | 300 kts | 54° |
| 2026-05-03 21:05 | 41.85431 | -71.12913 | 10196 ft | 300 kts | 54° |
| 2026-05-03 21:06 | 41.86499 | -71.10516 | 9788 ft | 298 kts | 54° |
| 2026-05-03 21:06 | 41.87546 | -71.08155 | 9410 ft | 295 kts | 54° |
| 2026-05-03 21:06 | 41.88582 | -71.05811 | 9048 ft | 291 kts | 54° |
| 2026-05-03 21:06 | 41.89621 | -71.03462 | 8686 ft | 289 kts | 54° |
| 2026-05-03 21:07 | 41.90625 | -71.01189 | 8340 ft | 286 kts | 54° |
| 2026-05-03 21:07 | 41.91639 | -70.98891 | 8036 ft | 281 kts | 54° |
| 2026-05-03 21:07 | 41.92632 | -70.96715 | 7983 ft | 269 kts | 51° |
| 2026-05-03 21:07 | 41.93690 | -70.94627 | 7985 ft | 271 kts | 49° |
| 2026-05-03 21:08 | 41.94772 | -70.92528 | 7981 ft | 272 kts | 49° |
| 2026-05-03 21:08 | 41.95847 | -70.90445 | 7975 ft | 272 kts | 49° |
| 2026-05-03 21:08 | 41.96918 | -70.88361 | 7862 ft | 274 kts | 49° |
| 2026-05-03 21:08 | 41.98003 | -70.86243 | 7477 ft | 274 kts | 49° |
| 2026-05-03 21:09 | 41.99072 | -70.84154 | 7133 ft | 271 kts | 49° |
| 2026-05-03 21:09 | 42.00122 | -70.82089 | 7020 ft | 260 kts | 49° |
| 2026-05-03 21:09 | 42.01202 | -70.80205 | 6927 ft | 245 kts | 41° |
| 2026-05-03 21:09 | 42.02367 | -70.78575 | 6945 ft | 242 kts | 37° |
| 2026-05-03 21:10 | 42.03573 | -70.76988 | 6965 ft | 242 kts | 37° |
| 2026-05-03 21:10 | 42.04787 | -70.75417 | 6964 ft | 237 kts | 33° |
| 2026-05-03 21:10 | 42.06053 | -70.74123 | 6823 ft | 225 kts | 27° |
| 2026-05-03 21:10 | 42.07325 | -70.72951 | 6655 ft | 217 kts | 26° |
| 2026-05-03 21:11 | 42.08550 | -70.71831 | 6416 ft | 213 kts | 26° |
| 2026-05-03 21:11 | 42.09807 | -70.70857 | 6113 ft | 204 kts | 9° |
| 2026-05-03 21:11 | 42.11189 | -70.70549 | 5831 ft | 196 kts | 358° |
| 2026-05-03 21:11 | 42.12524 | -70.70452 | 5549 ft | 193 kts | 353° |
| 2026-05-03 21:12 | 42.13792 | -70.70904 | 5224 ft | 187 kts | 329° |
| 2026-05-03 21:12 | 42.14860 | -70.71870 | 4939 ft | 185 kts | 320° |
| 2026-05-03 21:12 | 42.15841 | -70.73005 | 4654 ft | 184 kts | 318° |
| 2026-05-03 21:12 | 42.16782 | -70.74157 | 4372 ft | 183 kts | 317° |
| 2026-05-03 21:13 | 42.17707 | -70.75330 | 4089 ft | 182 kts | 316° |
| 2026-05-03 21:13 | 42.18609 | -70.76504 | 3811 ft | 181 kts | 315° |
| 2026-05-03 21:13 | 42.19518 | -70.77705 | 3519 ft | 181 kts | 315° |
| 2026-05-03 21:13 | 42.20406 | -70.78894 | 3246 ft | 180 kts | 315° |
| 2026-05-03 21:14 | 42.21283 | -70.80074 | 2967 ft | 179 kts | 315° |
| 2026-05-03 21:14 | 42.22163 | -70.81265 | 2674 ft | 179 kts | 315° |
| 2026-05-03 21:14 | 42.23052 | -70.82467 | 2376 ft | 180 kts | 315° |
| 2026-05-03 21:14 | 42.23937 | -70.83664 | 2085 ft | 179 kts | 315° |
| 2026-05-03 21:15 | 42.24807 | -70.84839 | 2006 ft | 176 kts | 315° |
| 2026-05-03 21:15 | 42.25635 | -70.85957 | 2049 ft | 158 kts | 315° |
| 2026-05-03 21:15 | 42.26372 | -70.86951 | 1973 ft | 142 kts | 316° |
| 2026-05-03 21:15 | 42.27028 | -70.87835 | 1939 ft | 125 kts | 316° |
| 2026-05-03 21:16 | 42.27644 | -70.88664 | 1958 ft | 124 kts | 316° |
| 2026-05-03 21:16 | 42.28257 | -70.89488 | 1964 ft | 125 kts | 316° |
| 2026-05-03 21:16 | 42.28878 | -70.90322 | 1819 ft | 125 kts | 315° |
| 2026-05-03 21:16 | 42.29499 | -70.91154 | 1685 ft | 125 kts | 315° |
| 2026-05-03 21:17 | 42.30112 | -70.91979 | 1514 ft | 122 kts | 315° |
| 2026-05-03 21:17 | 42.30514 | -70.92518 | 1398 ft | 121 kts | 315° |
| 2026-05-03 21:17 | 42.31308 | -70.93583 | 1198 ft | 122 kts | 315° |
| 2026-05-03 21:17 | 42.31904 | -70.94379 | 1037 ft | 121 kts | 315° |
| 2026-05-03 21:18 | 42.32500 | -70.95181 | 868 ft | 119 kts | 315° |
| 2026-05-03 21:18 | 42.33082 | -70.95976 | 687 ft | 120 kts | 315° |
| 2026-05-03 21:18 | 42.33679 | -70.96770 | 499 ft | 121 kts | 315° |
| 2026-05-03 21:18 | 42.34282 | -70.97566 | 375 ft | 119 kts | 315° |
| 2026-05-03 21:19 | 42.34858 | -70.98340 | 221 ft | 114 kts | 314° |
| 2026-05-03 21:19 | 42.35437 | -70.99122 | 75 ft | 118 kts | 315° |
| 2026-05-03 21:19 | 42.35975 | -70.99844 | 12 ft | 97 kts | 315° |
| 2026-05-03 21:19 | 42.36336 | -71.00326 | 11 ft | 54 kts | 314° |
| 2026-05-03 21:20 | 42.36543 | -71.00631 | 15 ft | 32 kts | 301° |
| 2026-05-03 21:20 | 42.36599 | -71.00805 | 15 ft | 7 kts | 285° |
| 2026-05-03 21:20 | 42.36610 | -71.00869 | 15 ft | 7 kts | 284° |
| 2026-05-03 21:20 | 42.36617 | -71.00909 | 15 ft | 2 kts | 282° |
| 2026-05-03 21:21 | 42.36618 | -71.00910 | 15 ft | 0 kts | 282° |
| 2026-05-03 21:21 | 42.36618 | -71.00912 | 15 ft | 0 kts | 282° |
| 2026-05-03 21:21 | 42.36620 | -71.00923 | 15 ft | 2 kts | 282° |
| 2026-05-03 21:22 | 42.36625 | -71.00956 | 15 ft | 4 kts | 282° |
| 2026-05-03 21:22 | 42.36634 | -71.01012 | 15 ft | 7 kts | 283° |
| 2026-05-03 21:22 | 42.36648 | -71.01088 | 15 ft | 9 kts | 284° |
| 2026-05-03 21:22 | 42.36645 | -71.01175 | 15 ft | 9 kts | 225° |
| 2026-05-03 21:23 | 42.36585 | -71.01210 | 16 ft | 9 kts | 200° |
| 2026-05-03 21:23 | 42.36524 | -71.01240 | 17 ft | 10 kts | 200° |
| 2026-05-03 21:23 | 42.36453 | -71.01275 | 18 ft | 11 kts | 200° |
| 2026-05-03 21:23 | 42.36368 | -71.01315 | 18 ft | 13 kts | 200° |
| 2026-05-03 21:24 | 42.36273 | -71.01362 | 18 ft | 15 kts | 200° |
| 2026-05-03 21:24 | 42.36169 | -71.01412 | 18 ft | 16 kts | 200° |
| 2026-05-03 21:24 | 42.36058 | -71.01466 | 18 ft | 17 kts | 200° |
| 2026-05-03 21:24 | 42.35945 | -71.01521 | 19 ft | 14 kts | 199° |
| 2026-05-03 21:25 | 42.35888 | -71.01601 | 19 ft | 13 kts | 274° |
| 2026-05-03 21:25 | 42.35907 | -71.01736 | 18 ft | 15 kts | 282° |
| 2026-05-03 21:25 | 42.35947 | -71.01886 | 18 ft | 17 kts | 301° |
| 2026-05-03 21:25 | 42.36011 | -71.02030 | 17 ft | 18 kts | 301° |
| 2026-05-03 21:26 | 42.36078 | -71.02181 | 15 ft | 19 kts | 301° |
| 2026-05-03 21:26 | 42.36175 | -71.02276 | 15 ft | 18 kts | 5° |
| 2026-05-03 21:26 | 42.36261 | -71.02235 | 15 ft | 7 kts | 22° |
| 2026-05-03 21:26 | 42.36307 | -71.02245 | 15 ft | 7 kts | 322° |
| 2026-05-03 21:27 | 42.36335 | -71.02265 | 15 ft | 3 kts | 10° |
| 2026-05-03 21:27 | 42.36354 | -71.02241 | 15 ft | 4 kts | 56° |
| 2026-05-03 21:27 | 42.36371 | -71.02206 | 15 ft | 1 kts | 56° |
| 2026-05-03 21:27 | 42.36372 | -71.02203 | 15 ft | 0 kts | 56° |